sensor_id;sensor_type;location;lat;lon;timestamp;P1;durP1;ratioP1;P2;durP2;ratioP2
57055;SDS011;42945;51.718;5.324;2023-09-30T00:03:07;19.98;;;7.32;;
57055;SDS011;42945;51.718;5.324;2023-09-30T00:12:43;22.48;;;7.32;;
57055;SDS011;42945;51.718;5.324;2023-09-30T00:18:32;20.48;;;8.00;;
57055;SDS011;42945;51.718;5.324;2023-09-30T00:24:20;26.42;;;8.55;;
57055;SDS011;42945;51.718;5.324;2023-09-30T00:30:09;21.27;;;8.55;;
57055;SDS011;42945;51.718;5.324;2023-09-30T00:35:58;21.30;;;8.57;;
57055;SDS011;42945;51.718;5.324;2023-09-30T00:41:45;23.10;;;8.50;;
57055;SDS011;42945;51.718;5.324;2023-09-30T00:47:33;21.20;;;8.85;;
57055;SDS011;42945;51.718;5.324;2023-09-30T00:53:22;19.92;;;9.50;;
57055;SDS011;42945;51.718;5.324;2023-09-30T00:59:14;22.73;;;9.52;;
57055;SDS011;42945;51.718;5.324;2023-09-30T01:05:02;25.08;;;10.82;;
57055;SDS011;42945;51.718;5.324;2023-09-30T01:20:13;23.58;;;11.07;;
57055;SDS011;42945;51.718;5.324;2023-09-30T01:26:09;23.90;;;10.43;;
57055;SDS011;42945;51.718;5.324;2023-09-30T01:31:59;23.33;;;10.65;;
57055;SDS011;42945;51.718;5.324;2023-09-30T01:37:48;30.17;;;11.80;;
57055;SDS011;42945;51.718;5.324;2023-09-30T01:43:36;24.25;;;10.95;;
57055;SDS011;42945;51.718;5.324;2023-09-30T01:49:24;24.45;;;11.32;;
57055;SDS011;42945;51.718;5.324;2023-09-30T01:55:13;29.83;;;11.55;;
57055;SDS011;42945;51.718;5.324;2023-09-30T02:01:04;26.73;;;12.63;;
57055;SDS011;42945;51.718;5.324;2023-09-30T02:06:52;28.33;;;12.25;;
57055;SDS011;42945;51.718;5.324;2023-09-30T02:16:29;32.15;;;13.55;;
57055;SDS011;42945;51.718;5.324;2023-09-30T02:22:21;27.63;;;12.55;;
57055;SDS011;42945;51.718;5.324;2023-09-30T02:28:11;28.27;;;13.38;;
57055;SDS011;42945;51.718;5.324;2023-09-30T02:34:00;28.02;;;12.65;;
57055;SDS011;42945;51.718;5.324;2023-09-30T02:39:51;25.95;;;12.32;;
57055;SDS011;42945;51.718;5.324;2023-09-30T02:45:38;25.17;;;11.60;;
57055;SDS011;42945;51.718;5.324;2023-09-30T02:51:26;26.52;;;11.70;;
57055;SDS011;42945;51.718;5.324;2023-09-30T02:57:14;27.23;;;12.23;;
57055;SDS011;42945;51.718;5.324;2023-09-30T03:03:03;28.92;;;12.90;;
57055;SDS011;42945;51.718;5.324;2023-09-30T03:08:51;30.67;;;13.13;;
57055;SDS011;42945;51.718;5.324;2023-09-30T03:18:34;33.85;;;14.82;;
57055;SDS011;42945;51.718;5.324;2023-09-30T03:24:22;31.05;;;15.15;;
57055;SDS011;42945;51.718;5.324;2023-09-30T03:30:11;31.02;;;14.55;;
57055;SDS011;42945;51.718;5.324;2023-09-30T03:36:00;30.50;;;14.40;;
57055;SDS011;42945;51.718;5.324;2023-09-30T03:41:50;33.55;;;15.70;;
57055;SDS011;42945;51.718;5.324;2023-09-30T03:47:39;33.78;;;15.55;;
57055;SDS011;42945;51.718;5.324;2023-09-30T03:53:29;35.17;;;15.95;;
57055;SDS011;42945;51.718;5.324;2023-09-30T03:59:17;31.65;;;15.80;;
57055;SDS011;42945;51.718;5.324;2023-09-30T04:05:06;38.75;;;16.45;;
57055;SDS011;42945;51.718;5.324;2023-09-30T04:10:54;33.00;;;16.35;;
57055;SDS011;42945;51.718;5.324;2023-09-30T04:20:36;38.67;;;15.90;;
57055;SDS011;42945;51.718;5.324;2023-09-30T04:26:26;35.90;;;17.52;;
57055;SDS011;42945;51.718;5.324;2023-09-30T04:32:15;37.63;;;16.70;;
57055;SDS011;42945;51.718;5.324;2023-09-30T04:38:02;35.38;;;15.88;;
57055;SDS011;42945;51.718;5.324;2023-09-30T04:43:51;36.13;;;16.23;;
57055;SDS011;42945;51.718;5.324;2023-09-30T04:49:46;33.08;;;14.80;;
57055;SDS011;42945;51.718;5.324;2023-09-30T04:55:33;33.80;;;14.90;;
57055;SDS011;42945;51.718;5.324;2023-09-30T05:01:25;36.58;;;15.25;;
57055;SDS011;42945;51.718;5.324;2023-09-30T05:07:13;34.97;;;15.02;;
57055;SDS011;42945;51.718;5.324;2023-09-30T05:23:47;31.35;;;14.35;;
57055;SDS011;42945;51.718;5.324;2023-09-30T05:29:36;31.15;;;14.75;;
57055;SDS011;42945;51.718;5.324;2023-09-30T05:35:24;37.45;;;14.77;;
57055;SDS011;42945;51.718;5.324;2023-09-30T05:41:14;35.20;;;15.50;;
57055;SDS011;42945;51.718;5.324;2023-09-30T05:47:03;39.28;;;15.48;;
57055;SDS011;42945;51.718;5.324;2023-09-30T05:52:53;35.10;;;14.40;;
57055;SDS011;42945;51.718;5.324;2023-09-30T05:58:45;42.85;;;15.52;;
57055;SDS011;42945;51.718;5.324;2023-09-30T06:04:33;36.30;;;15.93;;
57055;SDS011;42945;51.718;5.324;2023-09-30T06:10:23;36.95;;;16.25;;
57055;SDS011;42945;51.718;5.324;2023-09-30T06:16:13;42.95;;;16.55;;
57055;SDS011;42945;51.718;5.324;2023-09-30T06:26:03;38.92;;;17.30;;
57055;SDS011;42945;51.718;5.324;2023-09-30T06:31:50;41.78;;;17.27;;
57055;SDS011;42945;51.718;5.324;2023-09-30T06:37:38;42.97;;;18.02;;
57055;SDS011;42945;51.718;5.324;2023-09-30T06:43:26;43.15;;;17.67;;
57055;SDS011;42945;51.718;5.324;2023-09-30T06:49:27;48.45;;;19.55;;
57055;SDS011;42945;51.718;5.324;2023-09-30T06:55:15;43.50;;;18.00;;
57055;SDS011;42945;51.718;5.324;2023-09-30T07:01:04;45.90;;;17.45;;
57055;SDS011;42945;51.718;5.324;2023-09-30T07:06:53;43.08;;;16.95;;
57055;SDS011;42945;51.718;5.324;2023-09-30T07:12:41;45.30;;;16.63;;
57055;SDS011;42945;51.718;5.324;2023-09-30T07:18:29;39.80;;;16.90;;
57055;SDS011;42945;51.718;5.324;2023-09-30T07:28:18;31.45;;;15.45;;
57055;SDS011;42945;51.718;5.324;2023-09-30T07:34:06;36.40;;;16.23;;
57055;SDS011;42945;51.718;5.324;2023-09-30T07:40:13;34.97;;;14.80;;
57055;SDS011;42945;51.718;5.324;2023-09-30T07:46:06;34.47;;;15.00;;
57055;SDS011;42945;51.718;5.324;2023-09-30T07:51:54;35.50;;;14.95;;
57055;SDS011;42945;51.718;5.324;2023-09-30T07:57:43;38.67;;;14.38;;
57055;SDS011;42945;51.718;5.324;2023-09-30T08:03:30;34.13;;;15.32;;
57055;SDS011;42945;51.718;5.324;2023-09-30T08:09:18;31.90;;;14.93;;
57055;SDS011;42945;51.718;5.324;2023-09-30T08:15:08;29.77;;;15.05;;
57055;SDS011;42945;51.718;5.324;2023-09-30T08:20:58;36.30;;;14.68;;
57055;SDS011;42945;51.718;5.324;2023-09-30T08:30:48;34.25;;;14.57;;
57055;SDS011;42945;51.718;5.324;2023-09-30T08:36:38;37.50;;;15.82;;
57055;SDS011;42945;51.718;5.324;2023-09-30T08:42:24;38.90;;;15.85;;
57055;SDS011;42945;51.718;5.324;2023-09-30T08:48:20;36.72;;;16.15;;
57055;SDS011;42945;51.718;5.324;2023-09-30T08:54:10;40.15;;;14.85;;
57055;SDS011;42945;51.718;5.324;2023-09-30T08:59:59;38.17;;;14.30;;
57055;SDS011;42945;51.718;5.324;2023-09-30T09:05:54;40.13;;;13.77;;
57055;SDS011;42945;51.718;5.324;2023-09-30T09:11:44;35.83;;;14.18;;
57055;SDS011;42945;51.718;5.324;2023-09-30T09:17:41;38.15;;;14.95;;
57055;SDS011;42945;51.718;5.324;2023-09-30T09:23:34;35.35;;;13.43;;
57055;SDS011;42945;51.718;5.324;2023-09-30T09:33:35;31.77;;;13.65;;
57055;SDS011;42945;51.718;5.324;2023-09-30T09:39:29;30.35;;;12.45;;
57055;SDS011;42945;51.718;5.324;2023-09-30T09:45:18;32.85;;;12.95;;
57055;SDS011;42945;51.718;5.324;2023-09-30T09:51:09;32.53;;;12.40;;
57055;SDS011;42945;51.718;5.324;2023-09-30T09:57:00;33.17;;;14.10;;
57055;SDS011;42945;51.718;5.324;2023-09-30T10:02:51;30.23;;;13.48;;
57055;SDS011;42945;51.718;5.324;2023-09-30T10:08:43;34.65;;;15.43;;
57055;SDS011;42945;51.718;5.324;2023-09-30T10:20:35;36.50;;;13.93;;
57055;SDS011;42945;51.718;5.324;2023-09-30T10:26:35;37.95;;;14.65;;
57055;SDS011;42945;51.718;5.324;2023-09-30T10:36:27;41.13;;;14.70;;
57055;SDS011;42945;51.718;5.324;2023-09-30T10:42:42;39.17;;;14.90;;
57055;SDS011;42945;51.718;5.324;2023-09-30T10:48:44;41.90;;;13.93;;
57055;SDS011;42945;51.718;5.324;2023-09-30T10:54:33;33.07;;;12.30;;
57055;SDS011;42945;51.718;5.324;2023-09-30T11:00:22;34.00;;;13.50;;
57055;SDS011;42945;51.718;5.324;2023-09-30T11:06:12;35.50;;;12.82;;
57055;SDS011;42945;51.718;5.324;2023-09-30T11:12:04;37.90;;;12.18;;
57055;SDS011;42945;51.718;5.324;2023-09-30T11:18:15;28.23;;;12.45;;
57055;SDS011;42945;51.718;5.324;2023-09-30T11:24:04;37.80;;;13.70;;
57055;SDS011;42945;51.718;5.324;2023-09-30T11:29:54;25.83;;;9.75;;
57055;SDS011;42945;51.718;5.324;2023-09-30T11:32:24;28.90;;;10.38;;
57055;SDS011;42945;51.718;5.324;2023-09-30T11:44:51;19.70;;;7.80;;
57055;SDS011;42945;51.718;5.324;2023-09-30T11:50:48;19.65;;;7.57;;
57055;SDS011;42945;51.718;5.324;2023-09-30T11:56:38;21.33;;;7.80;;
57055;SDS011;42945;51.718;5.324;2023-09-30T12:02:25;20.42;;;7.78;;
57055;SDS011;42945;51.718;5.324;2023-09-30T12:08:14;16.23;;;4.90;;
57055;SDS011;42945;51.718;5.324;2023-09-30T12:14:02;13.23;;;4.85;;
57055;SDS011;42945;51.718;5.324;2023-09-30T12:19:51;15.98;;;5.20;;
57055;SDS011;42945;51.718;5.324;2023-09-30T12:25:38;12.57;;;4.20;;
57055;SDS011;42945;51.718;5.324;2023-09-30T12:31:51;12.07;;;3.90;;
57055;SDS011;42945;51.718;5.324;2023-09-30T12:37:40;9.70;;;3.15;;
57055;SDS011;42945;51.718;5.324;2023-09-30T12:43:30;15.90;;;4.00;;
57055;SDS011;42945;51.718;5.324;2023-09-30T12:49:18;14.00;;;4.53;;
57055;SDS011;42945;51.718;5.324;2023-09-30T12:55:07;13.20;;;4.05;;
57055;SDS011;42945;51.718;5.324;2023-09-30T13:00:56;14.25;;;4.00;;
57055;SDS011;42945;51.718;5.324;2023-09-30T13:06:45;12.98;;;4.20;;
57055;SDS011;42945;51.718;5.324;2023-09-30T13:12:34;12.75;;;3.78;;
57055;SDS011;42945;51.718;5.324;2023-09-30T13:18:23;10.40;;;3.35;;
57055;SDS011;42945;51.718;5.324;2023-09-30T13:24:11;14.30;;;3.70;;
57055;SDS011;42945;51.718;5.324;2023-09-30T13:29:58;13.18;;;3.45;;
57055;SDS011;42945;51.718;5.324;2023-09-30T13:32:25;10.30;;;3.58;;
57055;SDS011;42945;51.718;5.324;2023-09-30T13:38:13;13.10;;;3.33;;
57055;SDS011;42945;51.718;5.324;2023-09-30T13:44:03;13.32;;;3.47;;
57055;SDS011;42945;51.718;5.324;2023-09-30T13:49:52;13.70;;;3.55;;
57055;SDS011;42945;51.718;5.324;2023-09-30T13:55:42;10.45;;;3.30;;
57055;SDS011;42945;51.718;5.324;2023-09-30T14:01:30;11.82;;;3.28;;
57055;SDS011;42945;51.718;5.324;2023-09-30T14:07:18;10.93;;;3.60;;
57055;SDS011;42945;51.718;5.324;2023-09-30T14:13:06;14.48;;;2.60;;
57055;SDS011;42945;51.718;5.324;2023-09-30T14:18:54;10.03;;;2.90;;
57055;SDS011;42945;51.718;5.324;2023-09-30T14:24:42;10.13;;;2.80;;
57055;SDS011;42945;51.718;5.324;2023-09-30T14:30:30;11.43;;;3.03;;
57055;SDS011;42945;51.718;5.324;2023-09-30T14:36:20;7.97;;;3.07;;
57055;SDS011;42945;51.718;5.324;2023-09-30T14:42:08;10.73;;;3.22;;
57055;SDS011;42945;51.718;5.324;2023-09-30T14:47:56;11.63;;;3.60;;
57055;SDS011;42945;51.718;5.324;2023-09-30T14:53:45;10.23;;;2.97;;
57055;SDS011;42945;51.718;5.324;2023-09-30T14:59:33;11.82;;;3.05;;
57055;SDS011;42945;51.718;5.324;2023-09-30T15:05:22;8.55;;;2.80;;
57055;SDS011;42945;51.718;5.324;2023-09-30T15:11:14;8.77;;;2.78;;
57055;SDS011;42945;51.718;5.324;2023-09-30T15:17:04;16.13;;;3.38;;
57055;SDS011;42945;51.718;5.324;2023-09-30T15:22:52;10.35;;;3.38;;
57055;SDS011;42945;51.718;5.324;2023-09-30T15:28:40;10.75;;;3.20;;
57055;SDS011;42945;51.718;5.324;2023-09-30T15:38:29;13.13;;;3.22;;
57055;SDS011;42945;51.718;5.324;2023-09-30T15:44:18;8.00;;;2.60;;
57055;SDS011;42945;51.718;5.324;2023-09-30T15:50:10;9.07;;;3.10;;
57055;SDS011;42945;51.718;5.324;2023-09-30T15:55:59;14.80;;;3.00;;
57055;SDS011;42945;51.718;5.324;2023-09-30T16:01:51;12.30;;;3.07;;
57055;SDS011;42945;51.718;5.324;2023-09-30T16:07:39;9.05;;;3.28;;
57055;SDS011;42945;51.718;5.324;2023-09-30T16:13:28;13.05;;;3.30;;
57055;SDS011;42945;51.718;5.324;2023-09-30T16:19:18;14.88;;;3.40;;
57055;SDS011;42945;51.718;5.324;2023-09-30T16:25:06;9.87;;;2.93;;
57055;SDS011;42945;51.718;5.324;2023-09-30T16:30:54;21.20;;;3.28;;
57055;SDS011;42945;51.718;5.324;2023-09-30T16:40:45;11.43;;;3.40;;
57055;SDS011;42945;51.718;5.324;2023-09-30T16:46:34;13.25;;;3.75;;
57055;SDS011;42945;51.718;5.324;2023-09-30T16:52:21;14.48;;;4.07;;
57055;SDS011;42945;51.718;5.324;2023-09-30T16:58:12;13.13;;;3.00;;
57055;SDS011;42945;51.718;5.324;2023-09-30T17:04:00;12.10;;;3.80;;
57055;SDS011;42945;51.718;5.324;2023-09-30T17:09:48;12.68;;;3.45;;
57055;SDS011;42945;51.718;5.324;2023-09-30T17:15:40;9.70;;;3.28;;
57055;SDS011;42945;51.718;5.324;2023-09-30T17:21:30;7.95;;;3.50;;
57055;SDS011;42945;51.718;5.324;2023-09-30T17:27:19;9.03;;;3.37;;
57055;SDS011;42945;51.718;5.324;2023-09-30T17:33:28;12.73;;;3.75;;
57055;SDS011;42945;51.718;5.324;2023-09-30T17:43:17;13.57;;;4.00;;
57055;SDS011;42945;51.718;5.324;2023-09-30T17:49:05;10.80;;;4.00;;
57055;SDS011;42945;51.718;5.324;2023-09-30T17:54:53;11.10;;;3.93;;
57055;SDS011;42945;51.718;5.324;2023-09-30T18:00:46;13.88;;;4.50;;
57055;SDS011;42945;51.718;5.324;2023-09-30T18:06:35;11.65;;;4.10;;
57055;SDS011;42945;51.718;5.324;2023-09-30T18:12:24;14.30;;;4.22;;
57055;SDS011;42945;51.718;5.324;2023-09-30T18:18:15;13.73;;;5.20;;
57055;SDS011;42945;51.718;5.324;2023-09-30T18:24:04;12.77;;;4.75;;
57055;SDS011;42945;51.718;5.324;2023-09-30T18:29:53;13.68;;;5.20;;
57055;SDS011;42945;51.718;5.324;2023-09-30T18:35:42;13.75;;;5.03;;
57055;SDS011;42945;51.718;5.324;2023-09-30T18:45:25;12.73;;;4.97;;
57055;SDS011;42945;51.718;5.324;2023-09-30T18:51:17;16.13;;;6.45;;
57055;SDS011;42945;51.718;5.324;2023-09-30T18:56:48;11.90;;;6.10;;
57055;SDS011;42945;51.718;5.324;2023-09-30T19:02:38;17.58;;;6.47;;
57055;SDS011;42945;51.718;5.324;2023-09-30T19:08:25;17.42;;;6.50;;
57055;SDS011;42945;51.718;5.324;2023-09-30T19:14:14;14.15;;;6.13;;
57055;SDS011;42945;51.718;5.324;2023-09-30T19:20:03;15.68;;;7.05;;
57055;SDS011;42945;51.718;5.324;2023-09-30T19:25:52;14.00;;;6.77;;
57055;SDS011;42945;51.718;5.324;2023-09-30T19:31:41;14.70;;;6.73;;
57055;SDS011;42945;51.718;5.324;2023-09-30T19:37:51;16.00;;;7.68;;
57055;SDS011;42945;51.718;5.324;2023-09-30T19:47:32;13.63;;;7.38;;
57055;SDS011;42945;51.718;5.324;2023-09-30T19:53:21;14.60;;;8.45;;
57055;SDS011;42945;51.718;5.324;2023-09-30T19:59:10;17.85;;;8.55;;
57055;SDS011;42945;51.718;5.324;2023-09-30T20:04:58;17.45;;;9.20;;
57055;SDS011;42945;51.718;5.324;2023-09-30T20:10:45;19.13;;;9.75;;
57055;SDS011;42945;51.718;5.324;2023-09-30T20:16:34;17.50;;;10.57;;
57055;SDS011;42945;51.718;5.324;2023-09-30T20:22:21;19.55;;;11.07;;
57055;SDS011;42945;51.718;5.324;2023-09-30T20:28:09;23.05;;;10.85;;
57055;SDS011;42945;51.718;5.324;2023-09-30T20:33:57;20.33;;;11.10;;
57055;SDS011;42945;51.718;5.324;2023-09-30T20:39:50;20.33;;;10.70;;
57055;SDS011;42945;51.718;5.324;2023-09-30T20:49:34;19.38;;;10.98;;
57055;SDS011;42945;51.718;5.324;2023-09-30T20:55:25;19.40;;;10.30;;
57055;SDS011;42945;51.718;5.324;2023-09-30T21:01:12;16.88;;;9.95;;
57055;SDS011;42945;51.718;5.324;2023-09-30T21:07:02;17.80;;;9.48;;
57055;SDS011;42945;51.718;5.324;2023-09-30T21:12:50;16.20;;;9.75;;
57055;SDS011;42945;51.718;5.324;2023-09-30T21:18:39;16.98;;;9.40;;
57055;SDS011;42945;51.718;5.324;2023-09-30T21:24:29;15.30;;;8.70;;
57055;SDS011;42945;51.718;5.324;2023-09-30T21:30:21;15.65;;;8.95;;
57055;SDS011;42945;51.718;5.324;2023-09-30T21:36:08;19.92;;;8.77;;
57055;SDS011;42945;51.718;5.324;2023-09-30T21:41:57;17.10;;;8.82;;
57055;SDS011;42945;51.718;5.324;2023-09-30T21:51:41;19.83;;;9.20;;
57055;SDS011;42945;51.718;5.324;2023-09-30T21:57:29;13.32;;;8.23;;
57055;SDS011;42945;51.718;5.324;2023-09-30T22:03:17;16.75;;;8.40;;
57055;SDS011;42945;51.718;5.324;2023-09-30T22:09:05;20.40;;;9.13;;
57055;SDS011;42945;51.718;5.324;2023-09-30T22:14:53;18.50;;;8.57;;
57055;SDS011;42945;51.718;5.324;2023-09-30T22:20:42;19.90;;;8.67;;
57055;SDS011;42945;51.718;5.324;2023-09-30T22:26:30;17.70;;;8.80;;
57055;SDS011;42945;51.718;5.324;2023-09-30T22:32:18;14.27;;;8.05;;
57055;SDS011;42945;51.718;5.324;2023-09-30T22:38:06;19.27;;;8.98;;
57055;SDS011;42945;51.718;5.324;2023-09-30T22:43:58;24.10;;;9.38;;
57055;SDS011;42945;51.718;5.324;2023-09-30T22:49:59;17.48;;;9.02;;
57055;SDS011;42945;51.718;5.324;2023-09-30T22:55:47;16.98;;;8.30;;
57055;SDS011;42945;51.718;5.324;2023-09-30T23:01:35;20.42;;;8.82;;
57055;SDS011;42945;51.718;5.324;2023-09-30T23:07:23;19.67;;;8.50;;
57055;SDS011;42945;51.718;5.324;2023-09-30T23:13:12;17.10;;;8.43;;
57055;SDS011;42945;51.718;5.324;2023-09-30T23:25:09;15.02;;;8.05;;
57055;SDS011;42945;51.718;5.324;2023-09-30T23:31:03;14.88;;;7.85;;
57055;SDS011;42945;51.718;5.324;2023-09-30T23:36:51;16.85;;;8.00;;
57055;SDS011;42945;51.718;5.324;2023-09-30T23:42:40;18.20;;;7.60;;
57055;SDS011;42945;51.718;5.324;2023-09-30T23:48:29;15.48;;;8.02;;
57055;SDS011;42945;51.718;5.324;2023-09-30T23:54:16;13.65;;;7.85;;
